HISTORICAL SENSOR DATA

Sensor Data Report

DB LIVE
CURRENT TIME--:--:--
DEVICE NETWORK Gateway Status
13 ESP · realtime ~1s · history 60s
Weather WS-MOD-01
OFFLINE
Actuator ACT-MOD-01
OFFLINE
Mainboard L3 MB-L3-01
OFFLINE
Mainboard L5 MB-L5-01
OFFLINE
Remote AC AC-REMOTE-01
OFFLINE
PZEM L3-01 PWR-L3-01
OFFLINE
PZEM L3-02 PWR-L3-02
OFFLINE
PZEM L3-03 PWR-L3-03
OFFLINE
PZEM L3-04 PWR-L3-04
OFFLINE
PZEM L5-01 PWR-L5-01
OFFLINE
PZEM L5-02 PWR-L5-02
OFFLINE
PZEM L5-03 PWR-L5-03
OFFLINE
PZEM L5-04 PWR-L5-04
OFFLINE
REPORT FILTER

Periode & Sensor

DATABASE HISTORY
RESET
QUICK RANGE Hari ini 7 hari 30 hari
PERIODE05 Sep 2026sampai 05 Sep 2026
TOTAL DATA565sensor readings
MINIMUM1.00sesuai filter
AVERAGE284.06sesuai filter
MAXIMUM11,921.20sesuai filter
REPORT RESULT

Data Sensor

05/09/2026 — 05/09/2026 EXPORT CSV
NOTANGGALWAKTUDEVICECHANNELSENSORVALUEUNIT
201 05/09/2026 16:24:00 MB-L5-01Mainboard Lantai 5 L5-LUX-06 Illuminance / LUX 6 2,072.60 lux
202 05/09/2026 16:24:00 MB-L5-01Mainboard Lantai 5 L5-SHT-01-T SHT20 1 Temperature 32.60 °C
203 05/09/2026 16:24:00 MB-L5-01Mainboard Lantai 5 L5-HFT-01 Heat Flow Temperature 1 29.80 °C
204 05/09/2026 16:24:00 MB-L5-01Mainboard Lantai 5 L5-HFT-02 Heat Flow Temperature 2 29.70 °C
205 05/09/2026 16:24:00 MB-L5-01Mainboard Lantai 5 L5-BGT-01 Black Globe Temperature 1 29.50 °C
206 05/09/2026 16:24:00 MB-L5-01Mainboard Lantai 5 L5-LUX-01 Illuminance / LUX 1 798.80 lux
207 05/09/2026 16:24:00 MB-L5-01Mainboard Lantai 5 L5-ST-01 Surface Temperature 1 29.50 °C
208 05/09/2026 16:24:00 MB-L5-01Mainboard Lantai 5 L5-RAD-01 Radiation 1 15.00 W/m²
209 05/09/2026 16:24:00 MB-L5-01Mainboard Lantai 5 L5-SHT-02-T SHT20 2 Temperature 31.50 °C
210 05/09/2026 16:24:00 MB-L5-01Mainboard Lantai 5 L5-LUX-03 Illuminance / LUX 3 1,621.50 lux
211 05/09/2026 16:24:00 MB-L5-01Mainboard Lantai 5 L5-LUX-05 Illuminance / LUX 5 7,118.40 lux
212 05/09/2026 16:24:00 MB-L5-01Mainboard Lantai 5 L5-ST-02 Surface Temperature 2 29.70 °C
213 05/09/2026 16:24:00 MB-L5-01Mainboard Lantai 5 L5-SHT-01-RH SHT20 1 Humidity 30.80 %RH
214 05/09/2026 16:24:00 MB-L5-01Mainboard Lantai 5 L5-LUX-02 Illuminance / LUX 2 1,737.70 lux
215 05/09/2026 16:24:00 MB-L5-01Mainboard Lantai 5 L5-AI-01 Analog Input 1 3.05 V
216 05/09/2026 16:24:00 MB-L5-01Mainboard Lantai 5 L5-AI-02 Analog Input 2 3.05 V
217 05/09/2026 16:24:00 MB-L5-01Mainboard Lantai 5 L5-AI-03 Analog Input 3 3.05 V
218 05/09/2026 16:24:00 MB-L5-01Mainboard Lantai 5 L5-AI-04 Analog Input 4 3.05 V
219 05/09/2026 16:24:00 MB-L5-01Mainboard Lantai 5 L5-AI-05 Analog Input 5 3.05 V
220 05/09/2026 16:24:00 MB-L5-01Mainboard Lantai 5 L5-AI-06 Analog Input 6 3.05 V
221 05/09/2026 16:24:00 MB-L5-01Mainboard Lantai 5 L5-RAD-02 Radiation 2 38.00 W/m²
222 05/09/2026 16:24:00 MB-L5-01Mainboard Lantai 5 L5-BGT-02 Black Globe Temperature 2 29.40 °C
223 05/09/2026 16:24:00 MB-L5-01Mainboard Lantai 5 L5-BGT-03 Black Globe Temperature 3 29.60 °C
224 05/09/2026 16:23:00 MB-L5-01Mainboard Lantai 5 L5-LUX-01 Illuminance / LUX 1 775.90 lux
225 05/09/2026 16:23:00 MB-L5-01Mainboard Lantai 5 L5-ST-01 Surface Temperature 1 29.70 °C
226 05/09/2026 16:23:00 MB-L5-01Mainboard Lantai 5 L5-RAD-01 Radiation 1 15.00 W/m²
227 05/09/2026 16:23:00 MB-L5-01Mainboard Lantai 5 L5-SHT-02-T SHT20 2 Temperature 31.60 °C
228 05/09/2026 16:23:00 MB-L5-01Mainboard Lantai 5 L5-LUX-03 Illuminance / LUX 3 1,784.50 lux
229 05/09/2026 16:23:00 MB-L5-01Mainboard Lantai 5 L5-LUX-05 Illuminance / LUX 5 7,111.60 lux
230 05/09/2026 16:23:00 MB-L5-01Mainboard Lantai 5 L5-SHT-01-RH SHT20 1 Humidity 30.70 %RH
231 05/09/2026 16:23:00 MB-L5-01Mainboard Lantai 5 L5-LUX-02 Illuminance / LUX 2 1,742.50 lux
232 05/09/2026 16:23:00 MB-L5-01Mainboard Lantai 5 L5-AI-01 Analog Input 1 3.05 V
233 05/09/2026 16:23:00 MB-L5-01Mainboard Lantai 5 L5-AI-02 Analog Input 2 3.05 V
234 05/09/2026 16:23:00 MB-L5-01Mainboard Lantai 5 L5-AI-03 Analog Input 3 3.05 V
235 05/09/2026 16:23:00 MB-L5-01Mainboard Lantai 5 L5-AI-04 Analog Input 4 3.05 V
236 05/09/2026 16:23:00 MB-L5-01Mainboard Lantai 5 L5-AI-05 Analog Input 5 3.05 V
237 05/09/2026 16:23:00 MB-L5-01Mainboard Lantai 5 L5-AI-06 Analog Input 6 3.05 V
238 05/09/2026 16:23:00 MB-L5-01Mainboard Lantai 5 L5-RAD-02 Radiation 2 38.00 W/m²
239 05/09/2026 16:23:00 MB-L5-01Mainboard Lantai 5 L5-BGT-02 Black Globe Temperature 2 29.50 °C
240 05/09/2026 16:23:00 MB-L5-01Mainboard Lantai 5 L5-BGT-03 Black Globe Temperature 3 29.70 °C
241 05/09/2026 16:23:00 MB-L5-01Mainboard Lantai 5 L5-SHT-02-RH SHT20 2 Humidity 32.20 %RH
242 05/09/2026 16:23:00 MB-L5-01Mainboard Lantai 5 L5-LUX-04 Illuminance / LUX 4 782.30 lux
243 05/09/2026 16:23:00 MB-L5-01Mainboard Lantai 5 L5-LUX-06 Illuminance / LUX 6 2,064.80 lux
244 05/09/2026 16:23:00 MB-L5-01Mainboard Lantai 5 L5-SHT-01-T SHT20 1 Temperature 32.60 °C
245 05/09/2026 16:23:00 MB-L5-01Mainboard Lantai 5 L5-HFT-01 Heat Flow Temperature 1 29.70 °C
246 05/09/2026 16:23:00 MB-L5-01Mainboard Lantai 5 L5-HFT-02 Heat Flow Temperature 2 29.80 °C
247 05/09/2026 16:23:00 MB-L5-01Mainboard Lantai 5 L5-BGT-01 Black Globe Temperature 1 29.50 °C
248 05/09/2026 16:22:00 MB-L5-01Mainboard Lantai 5 L5-SHT-02-T SHT20 2 Temperature 31.30 °C
249 05/09/2026 16:22:00 MB-L5-01Mainboard Lantai 5 L5-LUX-03 Illuminance / LUX 3 1,661.10 lux
250 05/09/2026 16:22:00 MB-L5-01Mainboard Lantai 5 L5-LUX-05 Illuminance / LUX 5 7,455.50 lux
251 05/09/2026 16:22:00 MB-L5-01Mainboard Lantai 5 L5-SHT-01-RH SHT20 1 Humidity 31.10 %RH
252 05/09/2026 16:22:00 MB-L5-01Mainboard Lantai 5 L5-LUX-02 Illuminance / LUX 2 1,781.50 lux
253 05/09/2026 16:22:00 MB-L5-01Mainboard Lantai 5 L5-AI-01 Analog Input 1 3.05 V
254 05/09/2026 16:22:00 MB-L5-01Mainboard Lantai 5 L5-AI-02 Analog Input 2 3.05 V
255 05/09/2026 16:22:00 MB-L5-01Mainboard Lantai 5 L5-AI-03 Analog Input 3 3.05 V
256 05/09/2026 16:22:00 MB-L5-01Mainboard Lantai 5 L5-AI-04 Analog Input 4 3.05 V
257 05/09/2026 16:22:00 MB-L5-01Mainboard Lantai 5 L5-AI-05 Analog Input 5 3.05 V
258 05/09/2026 16:22:00 MB-L5-01Mainboard Lantai 5 L5-AI-06 Analog Input 6 3.05 V
259 05/09/2026 16:22:00 MB-L5-01Mainboard Lantai 5 L5-RAD-02 Radiation 2 31.00 W/m²
260 05/09/2026 16:22:00 MB-L5-01Mainboard Lantai 5 L5-BGT-02 Black Globe Temperature 2 29.30 °C
261 05/09/2026 16:22:00 MB-L5-01Mainboard Lantai 5 L5-BGT-03 Black Globe Temperature 3 29.40 °C
262 05/09/2026 16:22:00 MB-L5-01Mainboard Lantai 5 L5-SHT-02-RH SHT20 2 Humidity 32.80 %RH
263 05/09/2026 16:22:00 MB-L5-01Mainboard Lantai 5 L5-LUX-04 Illuminance / LUX 4 804.50 lux
264 05/09/2026 16:22:00 MB-L5-01Mainboard Lantai 5 L5-LUX-06 Illuminance / LUX 6 1,848.50 lux
265 05/09/2026 16:22:00 MB-L5-01Mainboard Lantai 5 L5-SHT-01-T SHT20 1 Temperature 32.20 °C
266 05/09/2026 16:22:00 MB-L5-01Mainboard Lantai 5 L5-HFT-01 Heat Flow Temperature 1 29.50 °C
267 05/09/2026 16:22:00 MB-L5-01Mainboard Lantai 5 L5-HFT-02 Heat Flow Temperature 2 29.60 °C
268 05/09/2026 16:22:00 MB-L5-01Mainboard Lantai 5 L5-BGT-01 Black Globe Temperature 1 29.30 °C
269 05/09/2026 16:22:00 MB-L5-01Mainboard Lantai 5 L5-LUX-01 Illuminance / LUX 1 824.50 lux
270 05/09/2026 16:22:00 MB-L5-01Mainboard Lantai 5 L5-ST-01 Surface Temperature 1 29.40 °C
271 05/09/2026 16:22:00 MB-L5-01Mainboard Lantai 5 L5-RAD-01 Radiation 1 15.00 W/m²
272 05/09/2026 16:21:00 MB-L5-01Mainboard Lantai 5 L5-SHT-01-RH SHT20 1 Humidity 31.90 %RH
273 05/09/2026 16:21:00 MB-L5-01Mainboard Lantai 5 L5-LUX-02 Illuminance / LUX 2 1,812.30 lux
274 05/09/2026 16:21:00 MB-L5-01Mainboard Lantai 5 L5-AI-01 Analog Input 1 3.05 V
275 05/09/2026 16:21:00 MB-L5-01Mainboard Lantai 5 L5-AI-02 Analog Input 2 3.05 V
276 05/09/2026 16:21:00 MB-L5-01Mainboard Lantai 5 L5-AI-03 Analog Input 3 3.05 V
277 05/09/2026 16:21:00 MB-L5-01Mainboard Lantai 5 L5-AI-04 Analog Input 4 3.05 V
278 05/09/2026 16:21:00 MB-L5-01Mainboard Lantai 5 L5-AI-05 Analog Input 5 3.05 V
279 05/09/2026 16:21:00 MB-L5-01Mainboard Lantai 5 L5-AI-06 Analog Input 6 3.05 V
280 05/09/2026 16:21:00 MB-L5-01Mainboard Lantai 5 L5-RAD-02 Radiation 2 16.00 W/m²
281 05/09/2026 16:21:00 MB-L5-01Mainboard Lantai 5 L5-BGT-02 Black Globe Temperature 2 29.60 °C
282 05/09/2026 16:21:00 MB-L5-01Mainboard Lantai 5 L5-BGT-03 Black Globe Temperature 3 29.60 °C
283 05/09/2026 16:21:00 MB-L5-01Mainboard Lantai 5 L5-SHT-02-RH SHT20 2 Humidity 33.50 %RH
284 05/09/2026 16:21:00 MB-L5-01Mainboard Lantai 5 L5-LUX-04 Illuminance / LUX 4 824.10 lux
285 05/09/2026 16:21:00 MB-L5-01Mainboard Lantai 5 L5-LUX-06 Illuminance / LUX 6 1,870.40 lux
286 05/09/2026 16:21:00 MB-L5-01Mainboard Lantai 5 L5-SHT-01-T SHT20 1 Temperature 31.70 °C
287 05/09/2026 16:21:00 MB-L5-01Mainboard Lantai 5 L5-HFT-01 Heat Flow Temperature 1 29.70 °C
288 05/09/2026 16:21:00 MB-L5-01Mainboard Lantai 5 L5-HFT-02 Heat Flow Temperature 2 29.70 °C
289 05/09/2026 16:21:00 MB-L5-01Mainboard Lantai 5 L5-BGT-01 Black Globe Temperature 1 29.60 °C
290 05/09/2026 16:21:00 MB-L5-01Mainboard Lantai 5 L5-LUX-01 Illuminance / LUX 1 854.10 lux
291 05/09/2026 16:21:00 MB-L5-01Mainboard Lantai 5 L5-ST-01 Surface Temperature 1 29.60 °C
292 05/09/2026 16:21:00 MB-L5-01Mainboard Lantai 5 L5-RAD-01 Radiation 1 15.00 W/m²
293 05/09/2026 16:21:00 MB-L5-01Mainboard Lantai 5 L5-SHT-02-T SHT20 2 Temperature 30.70 °C
294 05/09/2026 16:21:00 MB-L5-01Mainboard Lantai 5 L5-LUX-03 Illuminance / LUX 3 1,601.70 lux
295 05/09/2026 16:21:00 MB-L5-01Mainboard Lantai 5 L5-LUX-05 Illuminance / LUX 5 7,705.90 lux
296 05/09/2026 16:02:00 MB-L5-01Mainboard Lantai 5 L5-AI-01 Analog Input 1 3.05 V
297 05/09/2026 16:02:00 MB-L5-01Mainboard Lantai 5 L5-AI-02 Analog Input 2 3.05 V
298 05/09/2026 16:02:00 MB-L5-01Mainboard Lantai 5 L5-AI-03 Analog Input 3 3.05 V
299 05/09/2026 16:02:00 MB-L5-01Mainboard Lantai 5 L5-AI-04 Analog Input 4 3.05 V
300 05/09/2026 16:02:00 MB-L5-01Mainboard Lantai 5 L5-AI-05 Analog Input 5 3.05 V
Menampilkan maksimal 100 data per halaman